Time;durP1;ratioP1;P1;durP2;ratioP2;P2;SDS_P1;SDS_P2;PMS_P1;PMS_P2;Temp;Humidity;BMP_temperature;BMP_pressure;BME280_temperature;BME280_humidity;BME280_pressure;Samples;Min_cycle;Max_cycle;Signal;HPM_P1;HPM_P2
2023/05/11 00:02:46;;;;;;;0.90;0.90;;;;;;;;;;10293991;28;20442;-59
2023/05/11 00:07:47;;;;;;;2.97;1.30;;;;;;;;;;10290514;28;20054;-59
2023/05/11 00:12:47;;;;;;;1.30;0.88;;;;;;;;;;10292592;28;20089;-59
2023/05/11 00:17:48;;;;;;;1.67;0.82;;;;;;;;;;10289524;28;20272;-60
2023/05/11 00:22:48;;;;;;;1.20;1.10;;;;;;;;;;10290319;28;20026;-64
2023/05/11 00:27:49;;;;;;;0.95;0.93;;;;;;;;;;10291586;28;20022;-63
2023/05/11 00:32:53;;;;;;;2.25;0.90;;;;;;;;;;10291108;28;20074;-66
2023/05/11 00:37:53;;;;;;;1.65;0.90;;;;;;;;;;10288429;28;20501;-63
2023/05/11 00:42:54;;;;;;;0.90;0.90;;;;;;;;;;10290812;28;20415;-68
2023/05/11 00:47:54;;;;;;;1.20;1.10;;;;;;;;;;10291287;28;20034;-67
2023/05/11 00:52:56;;;;;;;1.15;1.00;;;;;;;;;;10290372;28;20027;-64
2023/05/11 00:57:57;;;;;;;1.08;0.75;;;;;;;;;;10271288;28;20386;-67
2023/05/11 01:03:00;;;;;;;0.70;0.70;;;;;;;;;;10289925;28;20167;-59
2023/05/11 01:08:12;;;;;;;3.10;1.10;;;;;;;;;;10271392;28;20037;-59
2023/05/11 01:13:26;;;;;;;0.95;0.80;;;;;;;;;;10271966;28;20478;-59
2023/05/11 01:19:07;;;;;;;0.70;0.70;;;;;;;;;;10287459;28;20077;-59
2023/05/11 01:24:47;;;;;;;1.05;0.70;;;;;;;;;;10254454;28;20049;-59
2023/05/11 01:30:27;;;;;;;1.00;0.70;;;;;;;;;;10299955;28;20031;-60
2023/05/11 01:35:31;;;;;;;2.85;0.80;;;;;;;;;;10279445;28;20023;-66
2023/05/11 01:40:35;;;;;;;0.80;0.80;;;;;;;;;;10267328;28;20061;-59
2023/05/11 01:45:42;;;;;;;2.35;1.02;;;;;;;;;;10288392;28;20061;-60
2023/05/11 01:50:44;;;;;;;0.70;0.70;;;;;;;;;;10270607;28;20028;-59
2023/05/11 01:55:47;;;;;;;0.95;0.70;;;;;;;;;;10289138;28;20490;-59
2023/05/11 02:00:48;;;;;;;0.57;0.57;;;;;;;;;;10271898;28;20055;-63
2023/05/11 02:05:49;;;;;;;0.63;0.63;;;;;;;;;;10263581;28;20386;-59
2023/05/11 02:10:52;;;;;;;0.70;0.70;;;;;;;;;;10287405;28;20037;-60
2023/05/11 02:15:57;;;;;;;2.17;0.60;;;;;;;;;;10267806;28;20023;-62
2023/05/11 02:20:59;;;;;;;1.25;0.80;;;;;;;;;;10268286;28;20026;-62
2023/05/11 02:26:01;;;;;;;0.63;0.55;;;;;;;;;;10269935;28;20458;-61
2023/05/11 02:31:09;;;;;;;1.17;0.80;;;;;;;;;;10285510;28;20487;-64
2023/05/11 02:36:16;;;;;;;1.15;0.70;;;;;;;;;;10285247;28;20042;-60
2023/05/11 02:41:23;;;;;;;0.50;0.50;;;;;;;;;;10269824;28;20127;-61
2023/05/11 02:46:28;;;;;;;1.30;0.60;;;;;;;;;;10267238;28;20411;-63
2023/05/11 02:51:35;;;;;;;0.70;0.70;;;;;;;;;;10268642;28;20031;-60
2023/05/11 02:56:37;;;;;;;0.50;0.50;;;;;;;;;;10267353;28;20023;-60
2023/05/11 03:01:38;;;;;;;0.60;0.60;;;;;;;;;;10285337;28;20019;-60
2023/05/11 03:06:39;;;;;;;0.57;0.57;;;;;;;;;;10283380;28;20093;-60
2023/05/11 03:11:40;;;;;;;1.42;0.63;;;;;;;;;;10284413;28;20030;-60
2023/05/11 03:16:41;;;;;;;0.68;0.63;;;;;;;;;;10284004;28;21521;-66
2023/05/11 03:21:42;;;;;;;0.65;0.60;;;;;;;;;;10289589;28;20027;-61
2023/05/11 03:26:43;;;;;;;0.60;0.60;;;;;;;;;;10275585;28;20031;-63
2023/05/11 03:31:44;;;;;;;0.60;0.60;;;;;;;;;;10276651;28;20331;-68
2023/05/11 03:36:47;;;;;;;0.73;0.70;;;;;;;;;;10292460;28;20571;-67
2023/05/11 03:41:50;;;;;;;0.82;0.55;;;;;;;;;;10291754;28;20386;-64
2023/05/11 03:46:53;;;;;;;0.90;0.50;;;;;;;;;;10275819;28;20043;-64
2023/05/11 03:51:55;;;;;;;0.90;0.55;;;;;;;;;;10291067;28;20023;-67
2023/05/11 03:56:55;;;;;;;1.02;0.60;;;;;;;;;;10274195;28;20022;-64
2023/05/11 04:01:57;;;;;;;0.60;0.60;;;;;;;;;;10275637;28;20121;-65
2023/05/11 04:06:58;;;;;;;0.50;0.50;;;;;;;;;;10290127;28;20045;-62
2023/05/11 04:11:58;;;;;;;0.77;0.77;;;;;;;;;;10291348;28;20050;-64
2023/05/11 04:17:00;;;;;;;1.33;0.70;;;;;;;;;;10290175;28;20474;-63
2023/05/11 04:22:00;;;;;;;0.70;0.70;;;;;;;;;;10290607;28;20057;-63
2023/05/11 04:27:01;;;;;;;1.33;0.60;;;;;;;;;;10291326;28;20031;-62
2023/05/11 04:32:01;;;;;;;0.75;0.75;;;;;;;;;;10289465;28;20034;-65
2023/05/11 04:37:06;;;;;;;0.63;0.60;;;;;;;;;;10291346;28;20031;-63
2023/05/11 04:42:06;;;;;;;1.02;0.57;;;;;;;;;;10290476;28;20031;-61
2023/05/11 04:47:07;;;;;;;8.85;0.70;;;;;;;;;;10298070;28;20433;-60
2023/05/11 04:52:07;;;;;;;2.03;1.08;;;;;;;;;;10299181;28;20105;-64
2023/05/11 04:57:08;;;;;;;0.60;0.60;;;;;;;;;;10299933;28;20078;-60
2023/05/11 05:02:09;;;;;;;0.82;0.80;;;;;;;;;;10296517;28;20030;-64
2023/05/11 05:07:09;;;;;;;1.73;0.70;;;;;;;;;;10291723;28;20219;-61
2023/05/11 05:12:10;;;;;;;0.90;0.70;;;;;;;;;;10307796;28;20035;-66
2023/05/11 05:17:10;;;;;;;0.70;0.70;;;;;;;;;;10312941;28;20026;-61
2023/05/11 05:22:11;;;;;;;0.95;0.60;;;;;;;;;;10301886;28;20027;-61
2023/05/11 05:27:11;;;;;;;0.80;0.70;;;;;;;;;;10302599;28;20328;-64
2023/05/11 05:32:12;;;;;;;1.83;0.80;;;;;;;;;;10312645;28;20034;-61
2023/05/11 05:37:12;;;;;;;0.88;0.88;;;;;;;;;;10301827;28;20034;-60
2023/05/11 05:42:13;;;;;;;11.65;1.17;;;;;;;;;;10284734;28;20518;-61
2023/05/11 05:47:14;;;;;;;9.90;1.92;;;;;;;;;;10295516;28;20390;-61
2023/05/11 05:52:15;;;;;;;6.30;1.58;;;;;;;;;;10307666;28;20039;-61
2023/05/11 05:57:15;;;;;;;14.43;1.90;;;;;;;;;;10272878;28;20194;-62
2023/05/11 06:02:17;;;;;;;12.65;1.95;;;;;;;;;;10288422;28;20150;-60
2023/05/11 06:07:18;;;;;;;7.47;1.60;;;;;;;;;;10271371;28;20070;-61
2023/05/11 06:12:18;;;;;;;7.72;1.60;;;;;;;;;;10283133;28;20039;-63
2023/05/11 06:17:19;;;;;;;9.23;2.08;;;;;;;;;;10302163;28;20035;-59
2023/05/11 06:22:19;;;;;;;11.43;1.70;;;;;;;;;;10303088;28;20027;-59
2023/05/11 06:27:20;;;;;;;11.43;1.60;;;;;;;;;;10316914;28;20106;-59
2023/05/11 06:32:21;;;;;;;18.02;1.80;;;;;;;;;;10319883;28;20025;-58
2023/05/11 06:37:21;;;;;;;17.55;2.45;;;;;;;;;;10302564;28;20018;-59
2023/05/11 06:42:22;;;;;;;9.93;2.15;;;;;;;;;;10307801;28;20045;-58
2023/05/11 06:47:22;;;;;;;11.52;2.08;;;;;;;;;;10313767;28;20031;-59
2023/05/11 06:52:23;;;;;;;12.35;1.95;;;;;;;;;;10309869;28;20492;-59
2023/05/11 06:57:24;;;;;;;8.45;2.08;;;;;;;;;;10322091;28;20465;-59
2023/05/11 07:02:24;;;;;;;10.00;1.95;;;;;;;;;;10306050;28;20104;-59
2023/05/11 07:07:25;;;;;;;6.57;1.83;;;;;;;;;;10285229;28;20063;-61
2023/05/11 07:12:25;;;;;;;6.07;1.90;;;;;;;;;;10286327;28;20031;-59
2023/05/11 07:17:27;;;;;;;10.80;1.85;;;;;;;;;;10285043;28;20031;-58
2023/05/11 07:22:27;;;;;;;8.90;1.80;;;;;;;;;;10285301;28;20184;-59
2023/05/11 07:27:30;;;;;;;2.75;1.90;;;;;;;;;;10285397;28;20538;-59
2023/05/11 07:32:31;;;;;;;8.90;1.50;;;;;;;;;;10285206;28;20019;-61
2023/05/11 07:37:32;;;;;;;8.32;2.28;;;;;;;;;;10285458;28;20038;-61
2023/05/11 07:42:32;;;;;;;9.65;1.98;;;;;;;;;;10285019;28;20039;-60
2023/05/11 07:47:33;;;;;;;3.47;1.67;;;;;;;;;;10283916;28;20042;-59
2023/05/11 07:52:33;;;;;;;4.55;1.30;;;;;;;;;;10285104;28;20019;-58
2023/05/11 07:57:34;;;;;;;3.45;1.80;;;;;;;;;;10285765;28;20486;-59
2023/05/11 08:02:34;;;;;;;6.57;1.90;;;;;;;;;;10283728;28;20399;-59
2023/05/11 08:07:35;;;;;;;2.10;1.20;;;;;;;;;;10284973;28;20035;-61
2023/05/11 08:12:36;;;;;;;7.40;1.33;;;;;;;;;;10292974;28;20031;-61
2023/05/11 08:17:37;;;;;;;4.18;1.50;;;;;;;;;;10292556;28;20031;-60
2023/05/11 08:22:37;;;;;;;1.90;1.10;;;;;;;;;;10291579;28;20042;-59
2023/05/11 08:27:38;;;;;;;1.77;1.48;;;;;;;;;;10292074;28;20027;-59
2023/05/11 08:32:39;;;;;;;1.95;1.15;;;;;;;;;;10273309;28;20065;-59
2023/05/11 08:37:39;;;;;;;2.20;1.33;;;;;;;;;;10290610;28;20027;-60
2023/05/11 08:42:44;;;;;;;2.40;1.15;;;;;;;;;;10290566;28;20043;-59
2023/05/11 08:47:46;;;;;;;2.75;1.30;;;;;;;;;;10273998;28;20466;-59
2023/05/11 08:52:47;;;;;;;5.47;1.40;;;;;;;;;;10290191;28;20471;-60
2023/05/11 08:57:49;;;;;;;3.53;1.33;;;;;;;;;;10288574;28;20026;-64
2023/05/11 09:02:51;;;;;;;2.45;1.30;;;;;;;;;;10272387;28;20054;-59
2023/05/11 09:07:54;;;;;;;3.65;1.27;;;;;;;;;;10273346;28;20038;-59
2023/05/11 09:12:55;;;;;;;2.67;1.10;;;;;;;;;;10288630;28;20027;-59
2023/05/11 09:17:55;;;;;;;2.03;1.10;;;;;;;;;;10289468;28;20118;-59
2023/05/11 09:22:59;;;;;;;4.65;1.50;;;;;;;;;;10287424;28;20378;-59
2023/05/11 09:28:00;;;;;;;2.53;1.25;;;;;;;;;;10288499;28;20075;-59
2023/05/11 09:33:01;;;;;;;2.08;1.33;;;;;;;;;;10288258;28;20189;-59
2023/05/11 09:38:03;;;;;;;2.97;1.15;;;;;;;;;;10289063;28;20035;-59
2023/05/11 09:43:26;;;;;;;1.77;1.00;;;;;;;;;;10288555;28;20042;-61
2023/05/11 09:48:31;;;;;;;1.98;1.20;;;;;;;;;;10287551;28;20375;-58
2023/05/11 09:53:41;;;;;;;2.03;1.20;;;;;;;;;;10287542;28;20090;-59
2023/05/11 09:58:50;;;;;;;1.13;0.95;;;;;;;;;;10288623;28;20054;-59
2023/05/11 10:03:52;;;;;;;1.05;0.95;;;;;;;;;;10286774;28;20418;-59
2023/05/11 10:08:53;;;;;;;1.77;1.20;;;;;;;;;;10282942;28;20064;-59
2023/05/11 10:13:54;;;;;;;3.22;1.27;;;;;;;;;;10285461;28;20438;-60
2023/05/11 10:18:56;;;;;;;3.05;0.93;;;;;;;;;;10287078;28;20031;-59
2023/05/11 10:23:57;;;;;;;3.83;1.02;;;;;;;;;;10285731;28;20410;-59
2023/05/11 10:29:00;;;;;;;9.55;1.23;;;;;;;;;;10285402;28;20023;-59
2023/05/11 10:34:02;;;;;;;1.20;1.10;;;;;;;;;;10285677;28;20046;-60
2023/05/11 10:39:03;;;;;;;1.27;1.02;;;;;;;;;;10269195;28;20034;-58
2023/05/11 10:44:40;;;;;;;1.55;0.90;;;;;;;;;;10285675;28;20039;-61
2023/05/11 10:50:27;;;;;;;2.28;1.00;;;;;;;;;;10286105;28;20031;-59
2023/05/11 10:55:57;;;;;;;1.77;0.98;;;;;;;;;;10285926;28;20157;-59
2023/05/11 11:01:36;;;;;;;1.63;0.82;;;;;;;;;;10277048;28;20106;-59
2023/05/11 11:06:42;;;;;;;2.90;0.95;;;;;;;;;;10265568;28;20022;-60
2023/05/11 11:11:49;;;;;;;1.60;0.80;;;;;;;;;;10285730;28;20034;-58
2023/05/11 11:17:26;;;;;;;1.90;0.90;;;;;;;;;;10285258;28;20463;-59
2023/05/11 11:22:39;;;;;;;0.77;0.75;;;;;;;;;;10246009;28;20038;-59
2023/05/11 11:27:40;;;;;;;0.95;0.93;;;;;;;;;;10284635;28;20023;-59
2023/05/11 11:32:41;;;;;;;3.22;1.20;;;;;;;;;;10284414;28;20019;-59
2023/05/11 11:38:16;;;;;;;2.00;0.95;;;;;;;;;;10267585;28;20035;-59
2023/05/11 11:43:20;;;;;;;1.23;0.80;;;;;;;;;;10248359;28;20046;-59
2023/05/11 11:48:34;;;;;;;1.85;0.80;;;;;;;;;;10284208;28;20089;-59
2023/05/11 11:53:35;;;;;;;0.75;0.75;;;;;;;;;;10291884;28;20062;-59
2023/05/11 11:58:39;;;;;;;1.17;0.90;;;;;;;;;;10291914;28;20500;-63
2023/05/11 12:03:45;;;;;;;1.20;0.90;;;;;;;;;;10285514;28;20023;-59
2023/05/11 12:08:46;;;;;;;3.75;1.17;;;;;;;;;;10287889;28;20411;-59
2023/05/11 12:13:47;;;;;;;1.95;0.90;;;;;;;;;;10273800;28;20023;-59
2023/05/11 12:18:57;;;;;;;1.92;0.90;;;;;;;;;;10290621;28;20469;-61
2023/05/11 12:24:04;;;;;;;1.67;0.75;;;;;;;;;;10288622;28;20411;-59
2023/05/11 12:29:12;;;;;;;3.38;0.90;;;;;;;;;;10289580;28;20500;-59
2023/05/11 12:34:17;;;;;;;0.77;0.77;;;;;;;;;;10276661;28;20118;-59
2023/05/11 12:39:26;;;;;;;0.60;0.60;;;;;;;;;;10306426;28;20029;-59
2023/05/11 12:44:27;;;;;;;0.80;0.70;;;;;;;;;;10316625;28;20038;-59
2023/05/11 12:49:28;;;;;;;1.25;0.82;;;;;;;;;;10285199;28;20030;-58
2023/05/11 12:54:36;;;;;;;3.78;0.70;;;;;;;;;;10318667;28;20450;-59
2023/05/11 12:59:39;;;;;;;1.17;0.70;;;;;;;;;;10299992;28;20431;-58
2023/05/11 13:04:42;;;;;;;1.17;0.73;;;;;;;;;;10285191;28;20035;-59
2023/05/11 13:09:58;;;;;;;2.72;1.05;;;;;;;;;;10301248;28;20557;-59
2023/05/11 13:15:11;;;;;;;0.60;0.60;;;;;;;;;;10303215;28;20511;-59
2023/05/11 13:20:15;;;;;;;0.60;0.60;;;;;;;;;;10287770;28;20037;-58
2023/05/11 13:25:20;;;;;;;1.65;0.80;;;;;;;;;;10281553;28;20049;-59
2023/05/11 13:30:21;;;;;;;4.55;1.08;;;;;;;;;;10313109;28;20053;-58
2023/05/11 13:35:21;;;;;;;36.00;2.13;;;;;;;;;;10311349;28;20041;-58
2023/05/11 13:40:22;;;;;;;12.00;1.27;;;;;;;;;;10320353;28;20026;-60
2023/05/11 13:45:23;;;;;;;47.20;2.67;;;;;;;;;;10310346;28;20054;-59
2023/05/11 13:50:25;;;;;;;24.13;2.13;;;;;;;;;;10301039;28;20398;-57
2023/05/11 13:55:26;;;;;;;19.02;2.17;;;;;;;;;;10290444;28;20031;-56
2023/05/11 14:00:27;;;;;;;36.08;2.70;;;;;;;;;;10303926;28;20041;-57
2023/05/11 14:05:28;;;;;;;20.08;1.90;;;;;;;;;;10302045;28;20038;-52
2023/05/11 14:10:28;;;;;;;22.58;2.42;;;;;;;;;;10307318;28;20026;-53
2023/05/11 14:15:29;;;;;;;21.50;1.92;;;;;;;;;;10319337;28;20034;-55
2023/05/11 14:20:30;;;;;;;14.00;2.10;;;;;;;;;;10315775;28;20026;-53
2023/05/11 14:25:31;;;;;;;19.95;1.70;;;;;;;;;;10304366;28;20035;-55
2023/05/11 14:30:32;;;;;;;7.22;1.63;;;;;;;;;;10304337;28;20077;-49
2023/05/11 14:35:32;;;;;;;9.48;1.63;;;;;;;;;;10311800;28;20033;-50
2023/05/11 14:40:33;;;;;;;13.98;1.90;;;;;;;;;;10314342;28;20390;-54
2023/05/11 14:45:34;;;;;;;23.25;1.85;;;;;;;;;;10308391;28;20490;-56
2023/05/11 14:50:34;;;;;;;10.10;1.40;;;;;;;;;;10308281;28;20449;-51
2023/05/11 14:55:36;;;;;;;10.57;1.58;;;;;;;;;;10303104;28;20034;-53
2023/05/11 15:00:40;;;;;;;6.32;1.45;;;;;;;;;;10305889;28;20123;-50
2023/05/11 15:05:41;;;;;;;6.07;1.40;;;;;;;;;;10282923;28;20090;-54
2023/05/11 15:10:41;;;;;;;6.20;1.40;;;;;;;;;;10284487;28;20023;-54
2023/05/11 15:15:42;;;;;;;6.32;1.42;;;;;;;;;;10294863;28;20026;-50
2023/05/11 15:20:43;;;;;;;6.38;1.48;;;;;;;;;;10302925;28;20495;-51
2023/05/11 15:25:43;;;;;;;7.00;1.67;;;;;;;;;;10302461;28;20086;-50
2023/05/11 15:30:46;;;;;;;5.32;1.13;;;;;;;;;;10312837;28;20023;-57
2023/05/11 15:35:48;;;;;;;4.80;1.88;;;;;;;;;;10303693;28;20089;-51
2023/05/11 15:40:50;;;;;;;4.63;1.30;;;;;;;;;;10302406;28;20029;-51
2023/05/11 15:45:53;;;;;;;5.93;1.13;;;;;;;;;;10283639;28;20649;-53
2023/05/11 15:50:53;;;;;;;2.00;1.15;;;;;;;;;;10279970;28;20019;-52
2023/05/11 15:55:54;;;;;;;3.97;1.20;;;;;;;;;;10287299;28;20046;-53
2023/05/11 16:00:55;;;;;;;5.07;1.15;;;;;;;;;;10307530;28;20026;-55
2023/05/11 16:05:56;;;;;;;4.45;1.20;;;;;;;;;;10289446;28;20066;-51
2023/05/11 16:10:56;;;;;;;3.33;1.30;;;;;;;;;;10304532;28;20054;-53
2023/05/11 16:15:58;;;;;;;8.40;1.30;;;;;;;;;;10300633;28;20363;-53
2023/05/11 16:20:58;;;;;;;3.97;1.38;;;;;;;;;;10300724;28;20031;-52
2023/05/11 16:25:59;;;;;;;3.75;1.10;;;;;;;;;;10300082;28;20089;-51
2023/05/11 16:31:00;;;;;;;3.78;1.33;;;;;;;;;;10292003;28;20034;-51
2023/05/11 16:36:01;;;;;;;4.22;1.17;;;;;;;;;;10303642;28;20038;-52
2023/05/11 16:41:01;;;;;;;4.57;1.30;;;;;;;;;;10302560;28;20069;-54
2023/05/11 16:46:02;;;;;;;2.47;1.20;;;;;;;;;;10299510;28;20062;-52
2023/05/11 16:51:02;;;;;;;5.38;1.40;;;;;;;;;;10287074;28;20041;-54
2023/05/11 16:56:04;;;;;;;8.00;1.48;;;;;;;;;;10297813;28;20035;-54
2023/05/11 17:01:05;;;;;;;1.70;1.33;;;;;;;;;;10297634;28;20359;-53
2023/05/11 17:06:08;;;;;;;5.15;1.20;;;;;;;;;;10289187;28;20039;-52
2023/05/11 17:11:09;;;;;;;6.72;1.30;;;;;;;;;;10288548;28;20039;-57
2023/05/11 17:16:10;;;;;;;2.65;1.40;;;;;;;;;;10291314;28;20053;-53
2023/05/11 17:21:10;;;;;;;5.35;1.10;;;;;;;;;;10282415;28;20035;-52
2023/05/11 17:26:12;;;;;;;5.97;1.55;;;;;;;;;;10281674;28;20071;-55
2023/05/11 17:31:14;;;;;;;7.40;1.33;;;;;;;;;;10279886;28;20097;-54
2023/05/11 17:36:15;;;;;;;2.65;0.85;;;;;;;;;;10291830;28;20061;-54
2023/05/11 17:41:15;;;;;;;7.80;1.58;;;;;;;;;;10289233;28;20026;-54
2023/05/11 17:46:16;;;;;;;3.78;1.10;;;;;;;;;;10294013;28;20503;-49
2023/05/11 17:51:16;;;;;;;1.58;1.10;;;;;;;;;;10287966;28;20046;-50
2023/05/11 17:56:18;;;;;;;6.43;1.67;;;;;;;;;;10294608;28;20051;-50
2023/05/11 18:01:21;;;;;;;7.20;1.45;;;;;;;;;;10274245;28;20402;-48
2023/05/11 18:06:22;;;;;;;2.45;1.08;;;;;;;;;;10283666;28;20055;-50
2023/05/11 18:11:22;;;;;;;4.13;1.48;;;;;;;;;;10287122;28;20045;-54
2023/05/11 18:16:23;;;;;;;3.30;1.70;;;;;;;;;;10281431;28;20034;-57
2023/05/11 18:21:25;;;;;;;1.92;1.10;;;;;;;;;;10293965;28;20031;-55
2023/05/11 18:26:26;;;;;;;5.43;1.30;;;;;;;;;;10287934;28;20046;-51
2023/05/11 18:31:28;;;;;;;4.20;1.13;;;;;;;;;;10286420;28;20434;-53
2023/05/11 18:36:28;;;;;;;6.63;1.58;;;;;;;;;;10285717;28;20035;-57
2023/05/11 18:41:29;;;;;;;3.63;1.48;;;;;;;;;;10281786;28;20038;-58
2023/05/11 18:46:30;;;;;;;9.10;1.60;;;;;;;;;;10282288;28;20169;-57
2023/05/11 18:51:30;;;;;;;5.25;1.45;;;;;;;;;;10268456;28;20549;-56
2023/05/11 18:56:31;;;;;;;5.50;1.10;;;;;;;;;;10293536;28;20039;-55
2023/05/11 19:01:32;;;;;;;3.58;1.30;;;;;;;;;;10292504;28;20030;-55
2023/05/11 19:06:33;;;;;;;2.97;1.10;;;;;;;;;;10279258;28;20035;-54
2023/05/11 19:11:34;;;;;;;5.15;1.25;;;;;;;;;;10256912;28;20282;-54
2023/05/11 19:16:35;;;;;;;3.38;1.85;;;;;;;;;;10291896;28;20204;-58
2023/05/11 19:21:39;;;;;;;4.00;1.42;;;;;;;;;;10293632;28;20198;-58
2023/05/11 19:26:40;;;;;;;3.05;1.15;;;;;;;;;;10289762;28;20415;-58
2023/05/11 19:31:41;;;;;;;6.13;1.35;;;;;;;;;;10288056;28;20125;-58
2023/05/11 19:36:41;;;;;;;1.73;1.15;;;;;;;;;;10269136;28;20462;-58
2023/05/11 19:41:42;;;;;;;2.60;1.10;;;;;;;;;;10285557;28;20034;-57
2023/05/11 19:46:45;;;;;;;4.70;1.20;;;;;;;;;;10318207;23;20054;-48
2023/05/11 19:51:46;;;;;;;6.13;1.30;;;;;;;;;;10365668;28;20540;-46
2023/05/11 19:56:47;;;;;;;6.00;1.25;;;;;;;;;;10342786;28;20104;-48
2023/05/11 20:01:47;;;;;;;9.18;1.35;;;;;;;;;;10341278;28;20081;-68
2023/05/11 20:06:48;;;;;;;2.65;1.35;;;;;;;;;;10328182;28;20030;-70
2023/05/11 20:11:48;;;;;;;6.35;1.27;;;;;;;;;;10310176;28;20018;-48
2023/05/11 20:16:49;;;;;;;5.50;1.40;;;;;;;;;;10332532;28;20015;-46
2023/05/11 20:21:50;;;;;;;13.95;1.27;;;;;;;;;;10331953;28;20085;-62
2023/05/11 20:26:51;;;;;;;4.15;1.50;;;;;;;;;;10323397;28;20382;-65
2023/05/11 20:31:52;;;;;;;4.25;1.23;;;;;;;;;;10338297;28;20034;-48
2023/05/11 20:36:53;;;;;;;2.20;1.13;;;;;;;;;;10331948;28;20026;-61
2023/05/11 20:41:56;;;;;;;4.28;1.10;;;;;;;;;;10331662;28;20023;-45
2023/05/11 20:46:56;;;;;;;3.45;1.80;;;;;;;;;;10325471;28;20052;-45
2023/05/11 20:51:57;;;;;;;1.85;0.90;;;;;;;;;;10331937;28;20034;-47
2023/05/11 20:56:58;;;;;;;1.48;1.00;;;;;;;;;;10329383;28;20033;-48
2023/05/11 21:01:59;;;;;;;2.20;1.00;;;;;;;;;;10331955;28;20042;-46
2023/05/11 21:06:59;;;;;;;2.35;1.20;;;;;;;;;;10328889;28;20185;-46
2023/05/11 21:12:00;;;;;;;2.75;1.30;;;;;;;;;;10329768;28;20031;-48
2023/05/11 21:17:00;;;;;;;1.80;1.00;;;;;;;;;;10297780;28;20030;-46
2023/05/11 21:22:03;;;;;;;2.90;1.00;;;;;;;;;;10333626;28;20026;-45
2023/05/11 21:27:04;;;;;;;0.95;0.90;;;;;;;;;;10338903;28;20129;-46
2023/05/11 21:32:05;;;;;;;2.85;1.00;;;;;;;;;;10326832;28;20041;-47
2023/05/11 21:37:06;;;;;;;1.80;1.02;;;;;;;;;;10329131;28;20061;-44
2023/05/11 21:42:14;;;;;;;0.82;0.82;;;;;;;;;;10336325;28;20398;-48
2023/05/11 21:47:15;;;;;;;0.75;0.75;;;;;;;;;;10329781;28;20521;-46
2023/05/11 21:52:16;;;;;;;0.85;0.73;;;;;;;;;;10327413;28;20033;-46
2023/05/11 21:57:26;;;;;;;0.77;0.77;;;;;;;;;;10327185;28;20053;-46
2023/05/11 22:02:26;;;;;;;1.30;0.90;;;;;;;;;;10329599;28;20317;-46
2023/05/11 22:07:27;;;;;;;3.22;1.08;;;;;;;;;;10327668;28;20657;-45
2023/05/11 22:12:28;;;;;;;2.20;0.75;;;;;;;;;;10328087;28;20117;-45
2023/05/11 22:17:28;;;;;;;5.18;0.90;;;;;;;;;;10333347;28;20026;-46
2023/05/11 22:22:29;;;;;;;1.33;0.82;;;;;;;;;;10332797;28;20025;-46
2023/05/11 22:27:30;;;;;;;4.15;0.70;;;;;;;;;;10327625;28;20470;-45
2023/05/11 22:32:31;;;;;;;1.92;0.68;;;;;;;;;;10325803;28;20026;-46
2023/05/11 22:37:32;;;;;;;0.98;0.80;;;;;;;;;;10326754;28;20029;-46
2023/05/11 22:42:33;;;;;;;4.72;0.80;;;;;;;;;;10325316;28;20030;-48
2023/05/11 22:47:34;;;;;;;3.90;1.00;;;;;;;;;;10324146;28;20529;-45
2023/05/11 22:52:35;;;;;;;2.85;0.90;;;;;;;;;;10324881;28;20021;-45
2023/05/11 22:57:36;;;;;;;0.70;0.70;;;;;;;;;;10322776;28;20029;-45
2023/05/11 23:02:36;;;;;;;1.95;0.70;;;;;;;;;;10326356;28;20022;-47
2023/05/11 23:07:38;;;;;;;2.13;0.90;;;;;;;;;;10324868;28;20401;-46
2023/05/11 23:12:38;;;;;;;0.70;0.70;;;;;;;;;;10325559;28;20073;-45
2023/05/11 23:17:39;;;;;;;2.85;0.70;;;;;;;;;;10324764;28;20367;-45
2023/05/11 23:22:39;;;;;;;0.63;0.60;;;;;;;;;;10324429;28;20027;-48
2023/05/11 23:27:40;;;;;;;0.88;0.80;;;;;;;;;;10326478;28;20034;-46
2023/05/11 23:32:40;;;;;;;0.93;0.80;;;;;;;;;;10325517;28;20022;-48
2023/05/11 23:37:41;;;;;;;1.30;0.80;;;;;;;;;;10326516;28;20030;-46
2023/05/11 23:42:42;;;;;;;0.93;0.73;;;;;;;;;;10327120;28;20022;-46
2023/05/11 23:47:43;;;;;;;0.70;0.70;;;;;;;;;;10326993;28;20047;-48
2023/05/11 23:52:43;;;;;;;1.45;0.80;;;;;;;;;;10333106;28;20034;-47
2023/05/11 23:57:44;;;;;;;0.70;0.70;;;;;;;;;;10333951;28;20034;-46
